Time;durP1;ratioP1;P1;durP2;ratioP2;P2;SDS_P1;SDS_P2;PMS_P1;PMS_P2;Temp;Humidity;BMP_temperature;BMP_pressure;BME280_temperature;BME280_humidity;BME280_pressure;Samples;Min_cycle;Max_cycle;Signal;HPM_P1;HPM_P2
2022/11/08 00:03:30;;;;;;;20.35;12.77;;;;;;;10.96;100.00;100796.53;5009022;28;20179;-45
2022/11/08 00:14:08;;;;;;;19.35;12.75;;;;;;;10.98;100.00;100802.69;5008948;28;20274;-43
2022/11/08 00:16:33;;;;;;;20.23;13.05;;;;;;;10.98;100.00;100804.50;5010455;28;20272;-45
2022/11/08 00:18:59;;;;;;;19.17;13.25;;;;;;;10.99;100.00;100808.91;5009574;28;20184;-47
2022/11/08 00:21:24;;;;;;;18.60;12.38;;;;;;;10.99;100.00;100812.47;5010937;28;20223;-47
2022/11/08 00:23:50;;;;;;;19.27;14.02;;;;;;;11.01;100.00;100807.91;5010428;28;20216;-47
2022/11/08 00:26:16;;;;;;;18.52;14.32;;;;;;;11.00;100.00;100806.19;5010777;28;20193;-46
2022/11/08 00:28:41;;;;;;;21.05;14.07;;;;;;;11.08;100.00;100806.72;5010870;28;20208;-46
2022/11/08 00:31:07;;;;;;;23.48;14.00;;;;;;;11.04;100.00;100805.13;5010240;28;20183;-49
2022/11/08 00:33:32;;;;;;;25.48;15.02;;;;;;;11.05;100.00;100798.81;5009976;28;20249;-47
2022/11/08 00:35:58;;;;;;;19.08;13.95;;;;;;;11.07;100.00;100801.44;5010331;28;20209;-47
2022/11/08 00:38:24;;;;;;;20.50;14.60;;;;;;;11.05;100.00;100798.81;5025676;28;20185;-47
2022/11/08 00:40:49;;;;;;;25.17;14.63;;;;;;;11.07;100.00;100807.69;5010778;28;20267;-47
2022/11/08 00:43:15;;;;;;;20.25;14.93;;;;;;;11.05;100.00;100806.00;5010002;28;20331;-46
2022/11/08 00:45:40;;;;;;;22.33;15.25;;;;;;;11.05;100.00;100804.19;5010077;28;20192;-46
2022/11/08 00:48:06;;;;;;;24.20;15.07;;;;;;;11.06;100.00;100805.94;5009356;28;20195;-45
2022/11/08 00:50:31;;;;;;;19.52;15.00;;;;;;;11.10;100.00;100804.00;5009820;28;20173;-47
2022/11/08 00:52:56;;;;;;;28.52;14.55;;;;;;;11.09;100.00;100811.16;5010284;28;20212;-48
2022/11/08 00:55:22;;;;;;;28.98;14.57;;;;;;;11.07;100.00;100801.44;4992110;28;20679;-48
2022/11/08 00:57:47;;;;;;;24.42;15.13;;;;;;;11.05;100.00;100801.50;5006556;28;20701;-48
2022/11/08 01:00:13;;;;;;;28.33;15.00;;;;;;;11.05;100.00;100803.31;5010318;28;20180;-48
2022/11/08 01:02:38;;;;;;;24.52;14.15;;;;;;;11.04;100.00;100807.81;5007788;28;20165;-47
2022/11/08 01:05:04;;;;;;;19.80;13.15;;;;;;;11.06;100.00;100803.25;5008632;28;20700;-46
2022/11/08 01:07:30;;;;;;;27.08;14.00;;;;;;;11.07;100.00;100810.34;5009919;28;20250;-47
2022/11/08 01:09:55;;;;;;;21.55;12.70;;;;;;;11.08;100.00;100819.25;5010520;28;20701;-47
2022/11/08 01:12:21;;;;;;;24.33;12.90;;;;;;;11.06;100.00;100815.78;5010024;28;20323;-47
2022/11/08 01:14:46;;;;;;;19.30;12.63;;;;;;;11.07;100.00;100807.69;5007952;28;20212;-47
2022/11/08 01:17:11;;;;;;;23.77;12.43;;;;;;;11.02;100.00;100815.03;5010304;28;20177;-48
2022/11/08 01:19:37;;;;;;;19.95;11.63;;;;;;;11.04;100.00;100818.53;5010006;28;20633;-48
2022/11/08 01:22:02;;;;;;;23.98;11.90;;;;;;;11.07;100.00;100810.34;5010395;28;20230;-48
2022/11/08 01:24:28;;;;;;;24.52;12.18;;;;;;;11.03;100.00;100811.41;5012105;28;20211;-47
2022/11/08 01:26:53;;;;;;;24.65;11.55;;;;;;;11.04;100.00;100809.59;5013625;28;20172;-48
2022/11/08 01:29:18;;;;;;;22.52;10.60;;;;;;;11.02;100.00;100817.72;5014149;28;20188;-48
2022/11/08 01:31:44;;;;;;;22.85;10.30;;;;;;;11.00;100.00;100818.69;5013704;28;20614;-48
2022/11/08 01:34:09;;;;;;;18.58;10.75;;;;;;;10.99;100.00;100807.09;5011934;28;20594;-48
2022/11/08 01:36:35;;;;;;;24.33;11.70;;;;;;;10.98;100.00;100801.81;5010546;28;20209;-47
2022/11/08 01:39:01;;;;;;;24.35;11.43;;;;;;;10.98;100.00;100808.06;5013518;28;20665;-47
2022/11/08 01:41:26;;;;;;;19.98;10.50;;;;;;;10.99;100.00;100809.78;5013320;28;20650;-46
2022/11/08 01:43:54;;;;;;;20.30;10.32;;;;;;;11.03;100.00;100802.50;5011969;28;20191;-47
2022/11/08 01:46:31;;;;;;;18.15;10.60;;;;;;;10.98;100.00;100815.22;5013700;28;20219;-48
2022/11/08 01:48:59;;;;;;;23.83;10.35;;;;;;;10.98;100.00;100810.75;5027484;28;20199;-46
2022/11/08 01:51:36;;;;;;;18.02;9.95;;;;;;;10.96;100.00;100812.59;5013026;28;20189;-45
2022/11/08 01:54:06;;;;;;;19.73;10.43;;;;;;;10.97;100.00;100800.94;5009539;28;20195;-47
2022/11/08 01:56:33;;;;;;;20.50;9.88;;;;;;;11.07;100.00;100809.50;5011712;28;20216;-47
2022/11/08 01:59:01;;;;;;;24.58;9.15;;;;;;;10.99;100.00;100807.09;5013246;28;20498;-47
2022/11/08 02:01:26;;;;;;;20.02;8.82;;;;;;;10.99;100.00;100806.25;5002835;28;20262;-47
2022/11/08 02:03:52;;;;;;;20.15;8.27;;;;;;;10.98;100.00;100804.50;5010253;28;20221;-48
2022/11/08 02:06:18;;;;;;;18.13;8.40;;;;;;;10.97;100.00;100792.88;5011654;28;20266;-47
2022/11/08 02:08:44;;;;;;;17.33;8.05;;;;;;;11.00;100.00;100799.94;5012987;28;20172;-49
2022/11/08 02:11:15;;;;;;;20.05;8.65;;;;;;;10.99;100.00;100800.88;5012633;28;20219;-47
2022/11/08 02:13:41;;;;;;;20.77;8.38;;;;;;;10.99;100.00;100800.88;5012219;28;20231;-46
2022/11/08 02:16:14;;;;;;;17.30;7.38;;;;;;;11.03;100.00;100789.09;5013048;28;20208;-49
2022/11/08 02:18:41;;;;;;;19.48;8.05;;;;;;;11.01;100.00;100796.31;5011429;28;20181;-47
2022/11/08 02:21:25;;;;;;;15.40;8.05;;;;;;;10.99;100.00;100801.75;5012591;28;20255;-48
2022/11/08 02:23:54;;;;;;;15.75;7.30;;;;;;;11.03;100.00;100795.31;5011202;28;20177;-46
2022/11/08 02:26:27;;;;;;;12.77;6.78;;;;;;;10.99;100.00;100804.44;5010980;28;20568;-48
2022/11/08 02:28:52;;;;;;;16.92;7.90;;;;;;;11.02;100.00;100792.69;5001806;28;20754;-47
2022/11/08 02:31:19;;;;;;;17.15;6.90;;;;;;;11.01;100.00;100790.97;5010370;28;20192;-47
2022/11/08 02:33:45;;;;;;;14.60;6.60;;;;;;;11.03;100.00;100795.31;5010017;28;20185;-46
2022/11/08 02:36:14;;;;;;;16.30;6.53;;;;;;;11.04;100.00;100801.56;5014967;28;20208;-48
2022/11/08 02:38:44;;;;;;;17.00;7.50;;;;;;;11.01;100.00;100791.84;5010598;28;20199;-48
2022/11/08 02:41:10;;;;;;;15.25;6.80;;;;;;;11.07;100.00;100796.94;5011193;28;20271;-46
2022/11/08 02:43:35;;;;;;;16.85;6.35;;;;;;;11.03;100.00;100791.78;5009824;28;20701;-47
2022/11/08 02:46:01;;;;;;;20.90;6.97;;;;;;;11.02;100.00;100782.88;5010671;28;20546;-49
2022/11/08 02:48:27;;;;;;;15.07;6.50;;;;;;;11.02;100.00;100788.22;5010784;28;20184;-48
2022/11/08 02:50:52;;;;;;;15.30;6.57;;;;;;;11.09;100.00;100781.69;5010632;28;20189;-48
2022/11/08 02:53:18;;;;;;;13.90;5.90;;;;;;;11.06;100.00;100787.19;5010293;28;20590;-48
2022/11/08 02:55:44;;;;;;;17.58;5.90;;;;;;;11.02;100.00;100772.16;5008904;28;20208;-48
2022/11/08 02:58:10;;;;;;;13.60;5.90;;;;;;;11.03;100.00;100779.25;5010605;28;20172;-48
2022/11/08 03:00:36;;;;;;;15.55;5.78;;;;;;;10.99;100.00;100774.94;5009975;28;20177;-49
2022/11/08 03:03:02;;;;;;;13.57;5.57;;;;;;;10.95;100.00;100775.13;5005781;28;20200;-48
2022/11/08 03:05:28;;;;;;;13.10;5.47;;;;;;;10.94;100.00;100779.63;5009605;28;20617;-48
2022/11/08 03:07:55;;;;;;;12.18;5.32;;;;;;;10.89;100.00;100773.59;5010251;28;20549;-48
2022/11/08 03:10:22;;;;;;;14.02;5.43;;;;;;;10.92;100.00;100776.13;5010353;28;20216;-49
2022/11/08 03:13:02;;;;;;;13.10;5.35;;;;;;;10.83;100.00;100781.88;5007159;28;20199;-48
2022/11/08 03:15:28;;;;;;;13.85;5.28;;;;;;;10.84;100.00;100780.91;5010058;28;20284;-48
2022/11/08 03:17:58;;;;;;;14.90;5.63;;;;;;;10.81;100.00;100773.00;5015385;28;20180;-47
2022/11/08 03:20:25;;;;;;;15.90;5.28;;;;;;;10.78;100.00;100775.78;5010137;28;20200;-47
2022/11/08 03:23:03;;;;;;;11.55;5.43;;;;;;;10.77;100.00;100766.88;5009675;28;20177;-46
2022/11/08 03:25:29;;;;;;;10.40;5.07;;;;;;;10.78;100.00;100775.78;5007104;28;20212;-46
2022/11/08 03:28:00;;;;;;;17.17;5.57;;;;;;;10.79;100.00;100774.88;5009087;28;20609;-49
2022/11/08 03:30:26;;;;;;;13.20;5.00;;;;;;;10.79;100.00;100778.44;5010100;28;20537;-47
2022/11/08 03:32:52;;;;;;;11.55;5.03;;;;;;;10.79;100.00;100777.56;5009943;28;20211;-47
2022/11/08 03:35:17;;;;;;;10.65;4.82;;;;;;;10.77;100.00;100777.59;5008992;28;20338;-47
2022/11/08 03:37:53;;;;;;;15.45;5.07;;;;;;;10.78;100.00;100774.00;5010141;28;20268;-48
2022/11/08 03:40:19;;;;;;;12.10;4.97;;;;;;;10.80;100.00;100768.56;5009646;28;20180;-48
2022/11/08 03:42:45;;;;;;;12.32;5.00;;;;;;;10.78;100.00;100773.13;5009771;28;20194;-46
2022/11/08 03:45:11;;;;;;;12.73;4.88;;;;;;;10.76;100.00;100772.31;5007570;28;20304;-47
2022/11/08 03:47:42;;;;;;;12.50;4.97;;;;;;;10.76;100.00;100767.84;5009199;28;20275;-48
2022/11/08 03:50:09;;;;;;;11.43;4.60;;;;;;;10.76;100.00;100757.13;5009399;28;20217;-46
2022/11/08 03:52:52;;;;;;;13.00;4.68;;;;;;;10.76;100.00;100767.84;5008782;28;20209;-47
2022/11/08 03:55:19;;;;;;;11.20;4.45;;;;;;;10.79;100.00;100766.84;5006924;28;20639;-46
2022/11/08 03:57:46;;;;;;;11.82;5.18;;;;;;;10.79;100.00;100764.16;5007631;28;20319;-46
2022/11/08 04:00:14;;;;;;;14.82;4.65;;;;;;;10.80;100.00;100756.06;5009676;28;20204;-47
2022/11/08 04:02:40;;;;;;;9.70;4.28;;;;;;;10.85;100.00;100756.75;5008353;28;20188;-48
2022/11/08 04:05:08;;;;;;;11.88;4.80;;;;;;;10.86;100.00;100755.78;5008764;28;20192;-48
2022/11/08 04:07:34;;;;;;;10.02;4.20;;;;;;;10.87;100.00;100764.72;5009154;28;20189;-47
2022/11/08 04:09:59;;;;;;;11.77;4.10;;;;;;;10.86;100.00;100753.13;5009624;28;20180;-48
2022/11/08 04:15:16;;;;;;;12.60;4.75;;;;;;;10.84;100.00;100746.94;5006557;28;20584;-47
2022/11/08 04:23:13;;;;;;;10.02;4.10;;;;;;;10.88;100.00;100745.03;5007655;28;20187;-47
2022/11/08 04:25:38;;;;;;;12.00;4.05;;;;;;;10.87;100.00;100743.28;5008595;28;20654;-47
2022/11/08 04:28:04;;;;;;;10.52;4.10;;;;;;;10.88;100.00;100735.16;5008002;28;20255;-47
2022/11/08 04:30:30;;;;;;;12.40;3.60;;;;;;;10.90;100.00;100737.78;5007353;28;20208;-46
2022/11/08 04:32:55;;;;;;;14.13;3.88;;;;;;;10.91;100.00;100737.75;5008984;28;20244;-47
2022/11/08 04:35:21;;;;;;;10.38;4.07;;;;;;;10.90;100.00;100735.09;5006241;28;20298;-48
2022/11/08 04:37:46;;;;;;;14.98;3.85;;;;;;;10.91;100.00;100736.84;5008655;28;20830;-46
2022/11/08 04:40:12;;;;;;;7.68;3.33;;;;;;;10.88;100.00;100723.56;5009109;28;20192;-49
2022/11/08 04:42:42;;;;;;;13.85;4.10;;;;;;;10.88;100.00;100727.13;5008459;28;20470;-47
2022/11/08 04:45:08;;;;;;;10.45;3.33;;;;;;;10.86;100.00;100737.03;5008071;28;20308;-46
2022/11/08 04:47:33;;;;;;;10.68;3.15;;;;;;;10.87;100.00;100732.56;5008590;28;20196;-47
2022/11/08 04:49:59;;;;;;;12.02;3.45;;;;;;;10.87;100.00;100724.53;5008877;28;20200;-47
2022/11/08 04:52:24;;;;;;;9.70;3.40;;;;;;;10.88;100.00;100745.88;5008460;28;20201;-47
2022/11/08 04:54:49;;;;;;;10.60;3.20;;;;;;;10.86;100.00;100733.47;5008337;28;20618;-47
2022/11/08 04:57:15;;;;;;;10.65;3.42;;;;;;;10.82;100.00;100723.81;5007425;28;20625;-45
2022/11/08 04:59:40;;;;;;;8.43;3.00;;;;;;;10.81;100.00;100724.78;5011314;28;20183;-46
2022/11/08 05:02:06;;;;;;;7.32;3.17;;;;;;;10.74;100.00;100731.31;5010696;28;20284;-47
2022/11/08 05:04:31;;;;;;;13.57;3.50;;;;;;;10.68;100.00;100730.63;5008610;28;20187;-48
2022/11/08 05:06:57;;;;;;;7.90;3.60;;;;;;;10.69;100.00;100731.47;5012541;28;20212;-46
2022/11/08 05:09:22;;;;;;;11.80;3.20;;;;;;;10.64;100.00;100731.66;5012517;28;20219;-47
2022/11/08 05:11:47;;;;;;;10.57;3.40;;;;;;;10.62;100.00;100722.81;5011905;28;20206;-46
2022/11/08 05:14:13;;;;;;;5.57;2.70;;;;;;;10.55;100.00;100724.00;5011718;28;20241;-48
2022/11/08 05:16:38;;;;;;;11.60;2.88;;;;;;;10.58;100.00;100720.31;5012047;28;20649;-47
2022/11/08 05:19:04;;;;;;;9.85;3.80;;;;;;;10.57;100.00;100714.09;5012193;28;20231;-47
2022/11/08 05:24:15;;;;;;;8.80;3.17;;;;;;;10.57;100.00;100711.44;5010803;28;20184;-48
2022/11/08 05:26:42;;;;;;;12.80;3.58;;;;;;;10.53;100.00;100717.84;5012132;28;20550;-49
2022/11/08 05:29:08;;;;;;;12.93;3.08;;;;;;;10.51;100.00;100722.38;5011933;28;20188;-48
2022/11/08 05:31:33;;;;;;;8.88;2.78;;;;;;;10.51;100.00;100720.56;5012022;28;20286;-46
2022/11/08 05:33:59;;;;;;;11.48;3.33;;;;;;;10.44;100.00;100720.88;5010254;28;20669;-47
2022/11/08 05:36:25;;;;;;;9.98;3.50;;;;;;;10.42;100.00;100720.94;5012042;28;20295;-48
2022/11/08 05:38:51;;;;;;;11.63;3.25;;;;;;;10.41;100.00;100719.22;5015694;28;20234;-48
2022/11/08 05:41:19;;;;;;;10.60;3.15;;;;;;;10.36;100.00;100718.50;5011929;28;20176;-46
2022/11/08 05:43:47;;;;;;;14.57;3.80;;;;;;;10.41;100.00;100726.38;5010061;28;20172;-47
2022/11/08 05:46:13;;;;;;;13.75;3.45;;;;;;;10.35;100.00;100716.75;5018785;28;20244;-46
2022/11/08 05:48:38;;;;;;;11.85;3.38;;;;;;;10.36;100.00;100721.16;5011698;28;20725;-46
2022/11/08 05:51:04;;;;;;;11.07;2.97;;;;;;;10.34;100.00;100715.00;5011068;28;20206;-46
2022/11/08 05:53:30;;;;;;;5.18;3.25;;;;;;;10.33;100.00;100710.59;5010557;28;20215;-47
2022/11/08 05:56:01;;;;;;;10.07;3.42;;;;;;;10.33;100.00;100712.41;5009142;28;20843;-47
2022/11/08 05:58:28;;;;;;;10.40;3.13;;;;;;;10.27;100.00;100713.47;5011278;28;20305;-48
2022/11/08 06:01:00;;;;;;;8.50;3.50;;;;;;;10.28;100.00;100710.75;5011320;28;20191;-46
2022/11/08 06:03:26;;;;;;;17.95;3.30;;;;;;;10.28;100.00;100728.63;5011019;28;20185;-49
2022/11/08 06:05:51;;;;;;;6.65;3.15;;;;;;;10.21;100.00;100721.72;5011288;28;20211;-46
2022/11/08 06:08:17;;;;;;;13.00;3.63;;;;;;;10.17;100.00;100726.34;5011103;28;20299;-46
2022/11/08 06:10:42;;;;;;;13.45;3.53;;;;;;;10.19;100.00;100732.53;5009936;28;20173;-50
2022/11/08 06:13:08;;;;;;;10.65;3.55;;;;;;;10.19;100.00;100721.81;5010937;28;20219;-47
2022/11/08 06:15:33;;;;;;;9.98;3.17;;;;;;;10.22;100.00;100731.53;5011242;28;20593;-47
2022/11/08 06:18:03;;;;;;;15.40;3.33;;;;;;;10.15;100.00;100722.88;5011817;28;20238;-47
2022/11/08 06:20:28;;;;;;;11.68;2.97;;;;;;;10.16;100.00;100726.41;5012369;28;20169;-47
2022/11/08 06:22:54;;;;;;;7.57;2.92;;;;;;;10.12;100.00;100733.66;5012101;28;20714;-48
2022/11/08 06:25:20;;;;;;;9.95;2.95;;;;;;;10.14;100.00;100730.94;5011832;28;20213;-48
2022/11/08 06:27:46;;;;;;;9.60;3.63;;;;;;;10.16;100.00;100732.63;5012132;28;20181;-48
2022/11/08 06:30:12;;;;;;;12.75;3.60;;;;;;;10.18;100.00;100733.44;5012248;28;20700;-48
2022/11/08 06:32:37;;;;;;;10.88;3.60;;;;;;;10.17;100.00;100723.69;5010066;28;20679;-47
2022/11/08 06:35:03;;;;;;;12.18;3.58;;;;;;;10.14;100.00;100726.44;5011154;28;20295;-48
2022/11/08 06:37:28;;;;;;;9.25;2.95;;;;;;;10.14;100.00;100725.59;5010364;28;20193;-47
2022/11/08 06:39:54;;;;;;;10.18;3.55;;;;;;;10.15;100.00;100717.50;5011413;28;20524;-48
2022/11/08 06:42:19;;;;;;;7.95;3.13;;;;;;;10.16;100.00;100718.38;5011797;28;20181;-47
2022/11/08 06:44:44;;;;;;;12.82;3.50;;;;;;;10.19;100.00;100721.81;5011021;28;20224;-49
2022/11/08 06:47:10;;;;;;;8.23;2.55;;;;;;;10.18;100.00;100720.06;5011691;28;20206;-48
2022/11/08 06:49:36;;;;;;;14.60;3.50;;;;;;;10.21;100.00;100719.06;5011250;28;20184;-49
2022/11/08 06:52:02;;;;;;;10.80;3.08;;;;;;;10.23;100.00;100714.53;5011186;28;20192;-48
2022/11/08 06:54:28;;;;;;;8.60;2.88;;;;;;;10.21;100.00;100717.28;5010420;28;20219;-49
2022/11/08 06:56:59;;;;;;;20.80;3.80;;;;;;;10.23;100.00;100718.09;5011631;28;20195;-49
2022/11/08 06:59:28;;;;;;;7.22;3.13;;;;;;;10.24;100.00;100708.25;5010706;28;20196;-50
2022/11/08 07:01:55;;;;;;;10.05;3.15;;;;;;;10.26;100.00;100709.06;5011361;28;20269;-49
2022/11/08 07:04:20;;;;;;;10.23;3.05;;;;;;;10.24;100.00;100708.25;5008988;28;20275;-49
2022/11/08 07:06:46;;;;;;;10.00;3.08;;;;;;;10.24;100.00;100714.47;5011134;28;20807;-48
2022/11/08 07:09:11;;;;;;;11.07;3.05;;;;;;;10.27;100.00;100706.31;5009903;28;20189;-49
2022/11/08 07:11:37;;;;;;;9.48;3.10;;;;;;;10.27;100.00;100708.13;5011260;28;20172;-48
2022/11/08 07:14:03;;;;;;;8.75;2.65;;;;;;;10.27;100.00;100711.66;5007967;28;20192;-48
2022/11/08 07:16:28;;;;;;;14.75;3.33;;;;;;;10.30;100.00;100708.91;5008197;28;20192;-49
2022/11/08 07:18:54;;;;;;;11.07;2.97;;;;;;;10.30;100.00;100708.06;5007630;28;20188;-48
2022/11/08 07:21:21;;;;;;;6.82;2.70;;;;;;;10.29;100.00;100703.59;5009624;28;20204;-48
2022/11/08 07:23:47;;;;;;;9.88;3.08;;;;;;;10.30;100.00;100708.91;5010439;28;20323;-49
2022/11/08 07:26:13;;;;;;;10.43;2.88;;;;;;;10.30;100.00;100708.91;5009215;28;20220;-49
2022/11/08 07:28:39;;;;;;;12.00;3.15;;;;;;;10.28;100.00;100710.75;5009070;28;20168;-49
2022/11/08 07:31:06;;;;;;;10.05;3.00;;;;;;;10.27;100.00;100708.13;5008492;28;20197;-48
2022/11/08 07:33:32;;;;;;;15.10;3.08;;;;;;;10.26;100.00;100703.72;5002013;28;20215;-49
2022/11/08 07:35:58;;;;;;;11.77;2.80;;;;;;;10.30;100.00;100703.56;5008661;28;20702;-48
2022/11/08 07:38:25;;;;;;;7.80;2.88;;;;;;;10.33;100.00;100710.59;5005029;28;20195;-50
2022/11/08 07:40:54;;;;;;;7.28;2.83;;;;;;;10.30;100.00;100710.72;4991786;28;20645;-47
2022/11/08 07:43:19;;;;;;;11.35;3.20;;;;;;;10.30;100.00;100708.91;5006379;28;20177;-49
2022/11/08 07:45:53;;;;;;;9.32;2.97;;;;;;;10.33;100.00;100701.69;5004401;28;20192;-49
2022/11/08 07:48:18;;;;;;;7.88;2.70;;;;;;;10.33;100.00;100697.19;5006618;28;20267;-50
2022/11/08 07:50:45;;;;;;;9.10;2.90;;;;;;;10.37;100.00;100695.28;5008630;28;20314;-48
2022/11/08 07:53:11;;;;;;;9.50;2.72;;;;;;;10.39;100.00;100699.66;5005622;28;20204;-50
2022/11/08 07:55:38;;;;;;;11.63;2.75;;;;;;;10.40;100.00;100700.50;5007183;28;20209;-49
2022/11/08 07:58:04;;;;;;;9.90;3.05;;;;;;;10.38;100.00;100713.09;5008726;28;20652;-47
2022/11/08 08:00:32;;;;;;;13.93;3.00;;;;;;;10.38;100.00;100703.25;5009078;28;20259;-49
2022/11/08 08:02:58;;;;;;;7.35;2.80;;;;;;;10.41;100.00;100702.28;5006868;28;20234;-48
2022/11/08 08:05:25;;;;;;;6.75;2.38;;;;;;;10.44;100.00;100704.81;5007294;28;20311;-49
2022/11/08 08:07:51;;;;;;;9.13;2.50;;;;;;;10.43;100.00;100708.41;5009348;28;20193;-47
2022/11/08 08:10:16;;;;;;;9.00;3.00;;;;;;;10.50;100.00;100705.44;5009449;28;20206;-50
2022/11/08 08:12:42;;;;;;;5.88;2.13;;;;;;;10.47;100.00;100705.56;5008853;28;20380;-49
2022/11/08 08:15:07;;;;;;;8.85;2.47;;;;;;;10.47;100.00;100685.94;5008364;28;20200;-48
2022/11/08 08:17:33;;;;;;;7.38;2.92;;;;;;;10.47;100.00;100693.97;5008958;28;20586;-49
2022/11/08 08:19:58;;;;;;;9.65;2.88;;;;;;;10.49;100.00;100692.09;5008894;28;20280;-49
2022/11/08 08:22:24;;;;;;;9.77;2.75;;;;;;;10.52;100.00;100698.22;5009101;28;20271;-49
2022/11/08 08:24:49;;;;;;;10.43;3.10;;;;;;;10.53;100.00;100691.06;5008048;28;20240;-48
2022/11/08 08:27:15;;;;;;;9.43;2.28;;;;;;;10.54;100.00;100684.78;5009238;28;20220;-49
2022/11/08 08:29:40;;;;;;;10.48;3.00;;;;;;;10.59;100.00;100687.25;5007214;28;20216;-49
2022/11/08 08:32:06;;;;;;;5.85;2.30;;;;;;;10.60;100.00;100691.66;5008719;28;20204;-50
2022/11/08 08:34:31;;;;;;;10.10;2.75;;;;;;;10.62;100.00;100696.03;5011141;28;20267;-49
2022/11/08 08:36:57;;;;;;;6.78;2.30;;;;;;;10.62;100.00;100685.31;5012270;28;20181;-49
2022/11/08 08:39:22;;;;;;;5.28;2.03;;;;;;;10.62;100.00;100682.63;5012922;28;20646;-48
2022/11/08 08:41:48;;;;;;;9.07;2.47;;;;;;;10.62;100.00;100681.78;5011257;28;20259;-48
2022/11/08 08:44:13;;;;;;;6.80;2.15;;;;;;;10.65;100.00;100684.34;5010742;28;20242;-49
2022/11/08 08:46:39;;;;;;;7.03;2.40;;;;;;;10.69;100.00;100689.50;5011503;28;20200;-48
2022/11/08 08:49:04;;;;;;;9.02;2.30;;;;;;;10.70;100.00;100685.88;5011407;28;20177;-49
2022/11/08 08:51:29;;;;;;;8.35;2.22;;;;;;;10.72;100.00;100673.28;5010919;28;20184;-50
2022/11/08 08:53:55;;;;;;;7.30;2.15;;;;;;;10.78;100.00;100672.19;5011906;28;20196;-47
2022/11/08 08:56:20;;;;;;;5.60;2.30;;;;;;;10.83;100.00;100672.84;4994950;28;20212;-48
2022/11/08 08:58:46;;;;;;;9.68;2.38;;;;;;;10.87;100.00;100678.97;5012386;28;20264;-48
2022/11/08 09:01:11;;;;;;;6.95;2.30;;;;;;;10.87;100.00;100668.25;5011100;28;20181;-47
2022/11/08 09:03:37;;;;;;;5.20;2.05;;;;;;;11.01;100.00;100673.88;5010341;28;20199;-50
2022/11/08 09:06:03;;;;;;;5.53;2.20;;;;;;;11.14;100.00;100660.81;5011052;28;20192;-48
2022/11/08 09:08:29;;;;;;;5.10;2.33;;;;;;;11.08;100.00;100658.41;5012273;28;20676;-50
2022/11/08 09:10:56;;;;;;;8.70;2.40;;;;;;;11.23;100.00;100664.91;5012645;28;20665;-50
2022/11/08 09:13:23;;;;;;;7.05;2.13;;;;;;;11.28;100.00;100657.53;5011528;28;20202;-48
2022/11/08 09:15:48;;;;;;;9.25;2.20;;;;;;;11.34;100.00;100655.44;5009845;28;20207;-49
2022/11/08 09:18:14;;;;;;;7.68;2.65;;;;;;;11.22;100.00;100639.91;5010188;28;20180;-48
2022/11/08 09:20:42;;;;;;;8.60;2.15;;;;;;;11.24;100.00;100647.88;5012014;28;20224;-49
2022/11/08 09:23:10;;;;;;;8.43;2.40;;;;;;;11.33;100.00;100639.44;5011610;28;20177;-47
2022/11/08 09:25:35;;;;;;;7.50;1.98;;;;;;;11.33;100.00;100645.66;5011600;28;20202;-47
2022/11/08 09:28:00;;;;;;;6.50;2.05;;;;;;;11.43;100.00;100646.13;5011746;28;20713;-49
2022/11/08 09:30:26;;;;;;;7.07;2.50;;;;;;;11.49;100.00;100645.84;5011746;28;20275;-49
2022/11/08 09:32:52;;;;;;;8.25;2.45;;;;;;;11.62;100.00;100632.75;5010171;28;20189;-49
2022/11/08 09:35:18;;;;;;;5.38;2.25;;;;;;;11.73;100.00;100634.94;5010850;28;20427;-49
2022/11/08 09:37:43;;;;;;;5.68;2.30;;;;;;;11.71;100.00;100632.31;5011438;28;20188;-50
2022/11/08 09:40:15;;;;;;;5.03;1.92;;;;;;;11.88;100.00;100633.41;5011603;28;20181;-49
2022/11/08 09:43:05;;;;;;;11.43;2.72;;;;;;;12.02;100.00;100630.91;5010712;28;20184;-49
2022/11/08 09:45:39;;;;;;;9.00;2.47;;;;;;;12.07;100.00;100631.59;5010788;28;20299;-50
2022/11/08 09:48:14;;;;;;;5.50;1.80;;;;;;;12.16;100.00;100630.28;5011565;28;20207;-50
2022/11/08 09:50:45;;;;;;;8.27;2.15;;;;;;;12.16;100.00;100616.84;5011788;28;20187;-48
2022/11/08 09:53:34;;;;;;;6.20;2.17;;;;;;;12.12;100.00;100628.69;5011289;28;20225;-48
2022/11/08 09:56:18;;;;;;;7.28;2.10;;;;;;;12.11;100.00;100618.88;5010946;28;20274;-50
2022/11/08 09:58:53;;;;;;;6.82;1.73;;;;;;;12.03;100.00;100619.25;5007999;28;20184;-50
2022/11/08 10:01:20;;;;;;;5.45;1.80;;;;;;;12.13;100.00;100607.13;5011364;28;20196;-48
2022/11/08 10:03:53;;;;;;;5.95;2.03;;;;;;;12.23;100.00;100602.16;5010084;28;20198;-48
2022/11/08 10:06:37;;;;;;;6.57;1.92;;;;;;;12.26;100.00;100601.16;5010178;28;20266;-49
2022/11/08 10:09:15;;;;;;;6.18;1.90;;;;;;;12.21;100.00;100601.38;5008727;28;20165;-48
2022/11/08 10:11:56;;;;;;;6.72;1.85;;;;;;;12.21;100.00;100596.00;5010707;28;20198;-47
2022/11/08 10:14:27;;;;;;;4.57;2.05;;;;;;;12.25;100.00;100600.28;5009711;28;20180;-50
2022/11/08 10:17:24;;;;;;;8.57;1.85;;;;;;;12.34;100.00;100597.13;5010659;28;20192;-49
2022/11/08 10:20:10;;;;;;;6.05;2.08;;;;;;;12.48;100.00;100590.19;5010371;28;20604;-49
2022/11/08 10:23:06;;;;;;;6.72;2.25;;;;;;;12.47;100.00;100586.66;5011018;28;20188;-47
2022/11/08 10:25:43;;;;;;;3.97;1.65;;;;;;;12.46;100.00;100581.34;5010943;28;20247;-48
2022/11/08 10:28:14;;;;;;;4.70;1.83;;;;;;;12.55;100.00;100575.50;5010345;28;20195;-49
2022/11/08 10:30:44;;;;;;;5.90;1.80;;;;;;;12.59;100.00;100579.78;5008294;28;20173;-49
2022/11/08 10:33:40;;;;;;;4.47;1.77;;;;;;;12.57;100.00;100569.13;5010910;28;20208;-48
2022/11/08 10:36:34;;;;;;;7.35;1.70;;;;;;;12.65;100.00;100562.47;5000690;28;20316;-49
2022/11/08 10:39:01;;;;;;;3.88;1.52;;;;;;;12.60;100.00;100557.34;5009573;28;20677;-49
2022/11/08 10:41:55;;;;;;;3.38;1.65;;;;;;;12.64;99.14;100556.25;5025496;28;20200;-48
2022/11/08 10:44:23;;;;;;;7.03;1.85;;;;;;;12.66;98.48;100548.06;5009519;28;20221;-50
2022/11/08 10:46:55;;;;;;;2.13;1.42;;;;;;;12.75;97.97;100535.06;5010388;28;20189;-48
2022/11/08 10:49:40;;;;;;;4.63;1.40;;;;;;;12.94;97.56;100526.91;5005296;28;20176;-48
2022/11/08 10:52:26;;;;;;;3.55;1.52;;;;;;;13.13;96.45;100516.00;5009999;28;20200;-46
2022/11/08 10:54:54;;;;;;;4.68;1.58;;;;;;;13.25;96.06;100516.28;5009842;28;20633;-47
2022/11/08 10:57:28;;;;;;;7.07;1.90;;;;;;;13.35;94.90;100504.97;5009357;28;20274;-48
2022/11/08 10:59:55;;;;;;;4.20;1.60;;;;;;;13.35;94.01;100512.19;5001525;28;20370;-48
2022/11/08 11:02:23;;;;;;;4.30;1.60;;;;;;;13.19;93.00;100504.06;5009033;28;20665;-47
2022/11/08 11:04:50;;;;;;;5.10;1.67;;;;;;;13.05;92.83;100501.22;5009591;28;20192;-51
2022/11/08 11:07:31;;;;;;;3.97;1.38;;;;;;;13.08;92.17;100496.56;5009999;28;20661;-48
2022/11/08 11:09:56;;;;;;;4.10;1.73;;;;;;;12.94;92.08;100491.03;5010196;28;20609;-48
2022/11/08 11:12:22;;;;;;;7.57;1.83;;;;;;;12.98;91.79;100500.69;5010101;28;20212;-48
2022/11/08 11:14:57;;;;;;;8.60;1.48;;;;;;;12.98;91.49;100496.19;5008177;28;20283;-47
2022/11/08 11:17:28;;;;;;;4.38;1.55;;;;;;;13.03;91.42;100492.38;4998807;28;20196;-49
2022/11/08 11:19:56;;;;;;;4.45;1.67;;;;;;;13.02;91.44;100496.03;5010077;28;20172;-48
2022/11/08 11:22:31;;;;;;;7.88;1.73;;;;;;;13.13;91.78;100485.56;5004604;28;20196;-47
2022/11/08 11:25:05;;;;;;;4.45;1.33;;;;;;;13.11;91.19;100480.25;5013735;28;20204;-51
2022/11/08 11:27:36;;;;;;;7.18;1.67;;;;;;;13.14;90.98;100477.41;4989053;28;20530;-49
2022/11/08 11:30:17;;;;;;;3.72;1.50;;;;;;;13.25;90.71;100468.75;5008972;28;20188;-48
2022/11/08 11:32:54;;;;;;;5.13;1.20;;;;;;;13.25;90.04;100463.38;5009178;28;20215;-47
2022/11/08 11:35:20;;;;;;;5.68;1.40;;;;;;;13.31;89.87;100459.50;5006920;28;20239;-47
2022/11/08 11:37:50;;;;;;;5.57;1.45;;;;;;;13.42;90.49;100466.97;5009823;28;20907;-50